Time;durP1;ratioP1;P1;durP2;ratioP2;P2;SDS_P1;SDS_P2;PMS_P1;PMS_P2;Temp;Humidity;BMP_temperature;BMP_pressure;BME280_temperature;BME280_humidity;BME280_pressure;Samples;Min_cycle;Max_cycle;Signal;HPM_P1;HPM_P2
2021/11/01 00:00:29;;;;;;;8.30;1.85;;;16.00;99.90;;;;;;5052129;28;20063;-66
2021/11/01 00:02:55;;;;;;;4.78;1.88;;;16.00;99.90;;;;;;5052268;28;20033;-66
2021/11/01 00:05:22;;;;;;;3.17;1.90;;;16.00;99.90;;;;;;5052038;28;20376;-67
2021/11/01 00:07:48;;;;;;;3.28;2.05;;;16.00;99.90;;;;;;5051972;28;20033;-66
2021/11/01 00:10:14;;;;;;;4.25;1.90;;;15.90;99.90;;;;;;5049813;28;20048;-67
2021/11/01 00:12:40;;;;;;;2.85;1.73;;;15.80;99.90;;;;;;5051427;28;20032;-67
2021/11/01 00:15:06;;;;;;;7.18;1.92;;;15.80;99.90;;;;;;5051089;28;20383;-67
2021/11/01 00:17:32;;;;;;;3.00;1.90;;;15.80;99.90;;;;;;5050485;28;20091;-67
2021/11/01 00:19:58;;;;;;;4.80;1.92;;;15.70;99.90;;;;;;5051458;28;20355;-69
2021/11/01 00:22:24;;;;;;;4.75;1.98;;;15.50;99.90;;;;;;5051615;28;20025;-66
2021/11/01 00:24:50;;;;;;;4.18;2.00;;;15.60;99.90;;;;;;5051005;28;20040;-67
2021/11/01 00:27:16;;;;;;;5.43;1.60;;;15.60;99.90;;;;;;5049327;28;20106;-67
2021/11/01 00:29:43;;;;;;;3.53;1.67;;;15.60;99.90;;;;;;5050241;28;20036;-67
2021/11/01 00:32:09;;;;;;;3.28;1.60;;;15.50;99.90;;;;;;5051283;28;20048;-68
2021/11/01 00:34:34;;;;;;;3.75;1.90;;;15.50;99.90;;;;;;5052623;28;20028;-68
2021/11/01 00:37:00;;;;;;;3.47;1.77;;;15.50;99.90;;;;;;5051621;28;20025;-67
2021/11/01 00:39:26;;;;;;;2.83;1.80;;;15.50;99.90;;;;;;5051675;28;20071;-66
2021/11/01 00:41:51;;;;;;;2.28;1.75;;;15.50;99.90;;;;;;5051640;28;20036;-67
2021/11/01 00:44:17;;;;;;;2.63;1.60;;;15.40;99.90;;;;;;5050403;28;20523;-68
2021/11/01 00:46:43;;;;;;;3.25;2.20;;;15.40;99.90;;;;;;5051336;28;20032;-67
2021/11/01 00:49:09;;;;;;;5.13;2.90;;;15.40;99.90;;;;;;5050833;28;20107;-67
2021/11/01 00:51:41;;;;;;;3.67;3.22;;;15.30;99.90;;;;;;5051130;28;20029;-67
2021/11/01 00:54:08;;;;;;;3.58;2.80;;;15.30;99.90;;;;;;5049346;28;20028;-67
2021/11/01 00:56:35;;;;;;;3.90;2.92;;;15.30;99.90;;;;;;5050678;28;20021;-67
2021/11/01 00:59:00;;;;;;;4.45;3.30;;;15.30;99.90;;;;;;5050683;28;20471;-68
2021/11/01 01:01:26;;;;;;;6.03;3.08;;;15.20;99.90;;;;;;5051028;28;20032;-68
2021/11/01 01:03:53;;;;;;;5.18;3.38;;;15.10;99.90;;;;;;5051166;28;20164;-67
2021/11/01 01:06:18;;;;;;;4.05;3.13;;;15.10;99.90;;;;;;5052260;28;20033;-67
2021/11/01 01:08:44;;;;;;;10.35;3.58;;;15.10;99.90;;;;;;5055233;28;20462;-66
2021/11/01 01:11:09;;;;;;;4.40;3.53;;;15.10;99.90;;;;;;5053406;28;20091;-66
2021/11/01 01:13:37;;;;;;;5.40;3.20;;;15.10;99.90;;;;;;5055185;28;20087;-67
2021/11/01 01:16:20;;;;;;;3.63;3.33;;;15.10;99.90;;;;;;5054288;28;20017;-67
2021/11/01 01:18:48;;;;;;;3.28;2.97;;;15.10;99.90;;;;;;5053851;28;20473;-67
2021/11/01 01:24:00;;;;;;;3.25;2.30;;;14.90;99.90;;;;;;5054644;28;20116;-66
2021/11/01 01:26:26;;;;;;;2.90;1.80;;;14.90;99.90;;;;;;5054685;28;20036;-66
2021/11/01 01:28:53;;;;;;;2.95;1.60;;;14.90;99.90;;;;;;5054373;28;20049;-67
2021/11/01 01:31:19;;;;;;;2.50;1.80;;;14.90;99.90;;;;;;5054281;28;20037;-68
2021/11/01 01:33:45;;;;;;;2.80;1.50;;;14.90;99.90;;;;;;5054604;28;20029;-67
2021/11/01 01:36:11;;;;;;;2.70;1.33;;;14.80;99.90;;;;;;5054014;28;20024;-67
2021/11/01 01:38:37;;;;;;;5.55;2.42;;;14.80;99.90;;;;;;5054701;28;20082;-67
2021/11/01 01:41:15;;;;;;;3.17;1.50;;;14.80;99.90;;;;;;5052690;28;20029;-68
2021/11/01 01:43:46;;;;;;;4.50;2.85;;;14.80;99.90;;;;;;5054553;28;20516;-68
2021/11/01 01:46:12;;;;;;;3.03;2.00;;;14.80;99.90;;;;;;5054067;28;20029;-66
2021/11/01 01:48:38;;;;;;;5.00;1.70;;;14.70;99.90;;;;;;5053226;28;20033;-68
2021/11/01 01:51:05;;;;;;;3.85;1.55;;;14.70;99.90;;;;;;5052667;28;20112;-68
2021/11/01 01:53:32;;;;;;;6.93;1.02;;;14.70;99.90;;;;;;5053141;28;20136;-67
2021/11/01 01:55:57;;;;;;;4.13;0.60;;;14.60;99.90;;;;;;5054260;28;20064;-67
2021/11/01 01:58:26;;;;;;;3.45;1.10;;;14.50;99.90;;;;;;5053584;28;20057;-68
2021/11/01 02:03:33;;;;;;;8.43;0.70;;;14.30;99.90;;;;;;5054391;28;20427;-66
2021/11/01 02:06:15;;;;;;;5.22;0.73;;;14.30;99.90;;;;;;5053047;28;20037;-66
2021/11/01 02:09:04;;;;;;;6.43;0.95;;;14.20;99.90;;;;;;5052797;28;20029;-66
2021/11/01 02:12:02;;;;;;;7.88;1.42;;;14.10;99.90;;;;;;5053853;28;20110;-67
2021/11/01 02:14:44;;;;;;;3.70;0.50;;;14.10;99.90;;;;;;5054295;28;20079;-67
2021/11/01 02:17:14;;;;;;;4.10;0.60;;;14.00;99.90;;;;;;5052236;28;20131;-67
2021/11/01 02:19:47;;;;;;;8.65;0.80;;;14.00;99.90;;;;;;5052615;28;20037;-67
2021/11/01 02:22:43;;;;;;;4.95;1.45;;;13.90;99.90;;;;;;5053297;28;20036;-67
2021/11/01 02:25:22;;;;;;;2.75;0.93;;;13.90;99.90;;;;;;5052787;28;20036;-67
2021/11/01 02:27:48;;;;;;;2.63;0.70;;;13.90;99.90;;;;;;5053808;28;20049;-67
2021/11/01 02:30:14;;;;;;;3.72;0.90;;;13.80;99.90;;;;;;5053319;28;20025;-67
2021/11/01 02:32:43;;;;;;;7.28;1.02;;;13.80;99.90;;;;;;5053590;28;20033;-67
2021/11/01 02:35:10;;;;;;;3.20;0.82;;;13.70;99.90;;;;;;5052923;28;20160;-67
2021/11/01 02:37:38;;;;;;;4.13;0.50;;;13.60;99.90;;;;;;5052195;28;20029;-67
2021/11/01 02:40:05;;;;;;;3.72;0.77;;;13.70;99.90;;;;;;5053534;28;20028;-70
2021/11/01 02:42:31;;;;;;;3.40;0.82;;;13.70;99.90;;;;;;5053509;28;20520;-67
2021/11/01 02:45:02;;;;;;;9.63;1.23;;;13.60;99.90;;;;;;5053176;28;20063;-67
2021/11/01 02:47:29;;;;;;;4.35;0.93;;;13.60;99.90;;;;;;5052885;28;20463;-67
2021/11/01 02:49:58;;;;;;;5.43;1.20;;;13.50;99.90;;;;;;5053472;28;20043;-67
2021/11/01 02:52:25;;;;;;;3.45;1.52;;;13.40;99.90;;;;;;5051451;28;20072;-67
2021/11/01 02:54:52;;;;;;;4.95;1.15;;;13.30;99.90;;;;;;5051631;28;20032;-66
2021/11/01 02:57:17;;;;;;;3.40;0.90;;;13.20;99.90;;;;;;5052724;28;20057;-66
2021/11/01 02:59:43;;;;;;;5.53;0.90;;;13.30;99.90;;;;;;5053466;28;20049;-68
2021/11/01 03:02:09;;;;;;;2.55;0.88;;;13.30;99.90;;;;;;5052562;28;20151;-67
2021/11/01 03:04:35;;;;;;;7.03;1.00;;;13.30;99.90;;;;;;5053009;28;20033;-66
2021/11/01 03:07:01;;;;;;;7.88;1.23;;;13.30;99.90;;;;;;5052745;28;20041;-67
2021/11/01 03:09:31;;;;;;;6.63;1.00;;;13.30;99.90;;;;;;5052426;28;20036;-67
2021/11/01 03:12:07;;;;;;;4.07;0.95;;;13.30;99.90;;;;;;5052985;28;20067;-67
2021/11/01 03:14:40;;;;;;;4.10;0.50;;;13.20;99.90;;;;;;5050538;28;20123;-67
2021/11/01 03:17:08;;;;;;;8.50;2.78;;;13.20;99.90;;;;;;5032645;28;20060;-68
2021/11/01 03:19:38;;;;;;;8.43;1.00;;;13.00;99.90;;;;;;5033772;28;20136;-66
2021/11/01 03:22:05;;;;;;;5.25;0.80;;;12.90;99.90;;;;;;5033141;28;20083;-66
2021/11/01 03:24:33;;;;;;;3.67;1.25;;;12.90;99.90;;;;;;5030354;28;20033;-67
2021/11/01 03:27:02;;;;;;;3.55;1.10;;;12.80;99.90;;;;;;5032523;28;20467;-67
2021/11/01 03:29:29;;;;;;;7.35;1.05;;;12.70;99.90;;;;;;5031753;28;20042;-67
2021/11/01 03:31:57;;;;;;;10.45;1.00;;;12.70;99.90;;;;;;5047899;28;20524;-67
2021/11/01 03:34:23;;;;;;;3.70;0.90;;;12.70;99.90;;;;;;5031756;28;20116;-67
2021/11/01 03:36:50;;;;;;;5.72;0.80;;;12.80;99.90;;;;;;5032631;28;20061;-67
2021/11/01 03:39:16;;;;;;;4.47;0.73;;;12.70;99.90;;;;;;5063977;28;20017;-66
2021/11/01 03:41:43;;;;;;;9.25;1.65;;;12.70;99.90;;;;;;5032289;28;20033;-67
2021/11/01 03:44:16;;;;;;;3.13;0.68;;;12.90;99.90;;;;;;5030418;28;20398;-73
2021/11/01 03:46:45;;;;;;;7.47;0.82;;;12.80;99.90;;;;;;5032374;28;20018;-67
2021/11/01 03:49:13;;;;;;;4.70;1.10;;;12.70;99.90;;;;;;5030416;28;20491;-67
2021/11/01 03:51:51;;;;;;;7.00;0.88;;;12.70;99.90;;;;;;5030804;28;20052;-67
2021/11/01 03:54:20;;;;;;;8.70;1.63;;;12.70;99.90;;;;;;5031631;28;20111;-66
2021/11/01 03:56:47;;;;;;;2.67;0.50;;;12.60;99.90;;;;;;5032036;28;20041;-66
2021/11/01 03:59:14;;;;;;;2.47;0.70;;;12.50;99.90;;;;;;5031663;28;20467;-66
2021/11/01 04:01:42;;;;;;;7.20;2.17;;;12.50;99.90;;;;;;5063668;28;20459;-67
2021/11/01 04:04:09;;;;;;;5.68;1.05;;;12.50;99.90;;;;;;5032018;28;20037;-67
2021/11/01 04:06:38;;;;;;;3.88;0.70;;;12.40;99.90;;;;;;5031940;28;20017;-67
2021/11/01 04:09:04;;;;;;;5.85;2.25;;;12.40;99.90;;;;;;5032100;28;20021;-66
2021/11/01 04:11:31;;;;;;;5.55;1.20;;;12.40;99.90;;;;;;5031400;28;20226;-66
2021/11/01 04:14:03;;;;;;;3.13;0.50;;;12.40;99.90;;;;;;5030651;28;20033;-67
2021/11/01 04:16:43;;;;;;;3.60;0.80;;;12.40;99.90;;;;;;5031254;28;20038;-67
2021/11/01 04:21:39;;;;;;;4.25;0.60;;;12.30;99.90;;;;;;5032241;28;20060;-67
2021/11/01 04:24:05;;;;;;;5.65;1.30;;;12.20;99.90;;;;;;5031739;28;20140;-68
2021/11/01 04:26:31;;;;;;;4.00;0.63;;;12.30;99.90;;;;;;5030871;28;20290;-68
2021/11/01 04:28:58;;;;;;;3.67;0.50;;;12.40;99.90;;;;;;5031432;28;20069;-68
2021/11/01 04:31:33;;;;;;;2.00;0.70;;;12.30;99.90;;;;;;5031372;28;20064;-67
2021/11/01 04:34:09;;;;;;;6.60;0.63;;;12.30;99.90;;;;;;5032126;28;20036;-66
2021/11/01 04:36:34;;;;;;;7.15;1.80;;;12.20;99.90;;;;;;5029453;28;20037;-65
2021/11/01 04:41:38;;;;;;;4.63;1.20;;;12.30;99.90;;;;;;5030650;28;20427;-66
2021/11/01 04:55:00;;;;;;;2.75;0.70;;;12.40;99.90;;;;;;5031171;28;20125;-67
2021/11/01 04:57:26;;;;;;;5.90;0.80;;;12.30;99.90;;;;;;5030604;28;20090;-67
2021/11/01 04:59:52;;;;;;;3.78;1.02;;;12.30;99.90;;;;;;5031481;28;20518;-66
2021/11/01 05:02:19;;;;;;;3.88;1.15;;;12.30;99.90;;;;;;5030598;28;20087;-67
2021/11/01 05:04:47;;;;;;;4.20;0.80;;;12.30;99.90;;;;;;5031056;28;20164;-67
2021/11/01 05:07:13;;;;;;;5.47;0.60;;;12.30;99.90;;;;;;5031154;28;20021;-66
2021/11/01 05:10:24;;;;;;;4.38;0.68;;;12.30;99.90;;;;;;5030861;28;20469;-65
2021/11/01 05:12:35;;;;;;;5.68;1.00;;;12.20;99.90;;;;;;5027202;28;20400;-65
2021/11/01 05:15:13;;;;;;;5.68;1.15;;;12.00;99.90;;;;;;5031151;28;20029;-66
2021/11/01 05:20:40;;;;;;;7.47;0.88;;;12.00;99.90;;;;;;5030402;28;20025;-66
2021/11/01 05:23:27;;;;;;;3.42;1.48;;;11.90;99.90;;;;;;5030693;28;20053;-66
2021/11/01 05:25:59;;;;;;;5.07;1.02;;;12.00;99.90;;;;;;5030583;28;20455;-66
2021/11/01 05:31:13;;;;;;;4.50;0.85;;;12.00;99.90;;;;;;5030969;28;20030;-67
2021/11/01 05:36:23;;;;;;;2.33;1.10;;;12.00;99.90;;;;;;5029979;28;20064;-66
2021/11/01 05:38:50;;;;;;;1.65;0.95;;;12.00;99.90;;;;;;5029412;28;20049;-67
2021/11/01 05:41:16;;;;;;;2.47;1.05;;;12.00;99.90;;;;;;5062483;28;20025;-77
2021/11/01 05:43:42;;;;;;;6.90;1.77;;;11.90;99.90;;;;;;5062339;28;20025;-67
2021/11/01 05:46:08;;;;;;;2.38;1.20;;;11.90;99.90;;;;;;5030656;28;20111;-67
2021/11/01 05:48:34;;;;;;;3.08;1.20;;;12.00;99.90;;;;;;5028679;28;20029;-67
2021/11/01 05:51:00;;;;;;;7.53;1.50;;;12.00;99.90;;;;;;5030848;28;20049;-68
2021/11/01 05:53:32;;;;;;;4.13;1.50;;;12.00;99.90;;;;;;5032394;28;20105;-67
2021/11/01 05:56:21;;;;;;;5.55;1.23;;;12.00;99.90;;;;;;5034723;28;20075;-67
2021/11/01 06:14:15;;;;;;;6.63;1.48;;;11.80;99.90;;;;;;5033666;28;20059;-67
2021/11/01 06:16:41;;;;;;;6.43;2.13;;;11.90;99.90;;;;;;5033218;28;20104;-67
2021/11/01 06:19:07;;;;;;;6.07;1.45;;;11.90;99.90;;;;;;5033696;28;20439;-67
2021/11/01 06:21:33;;;;;;;5.70;1.88;;;11.90;99.90;;;;;;5031656;28;20029;-66
2021/11/01 06:24:01;;;;;;;6.93;2.95;;;11.90;99.90;;;;;;5032288;28;20041;-66
2021/11/01 06:26:29;;;;;;;4.88;1.73;;;11.90;99.90;;;;;;5033328;28;20070;-66
2021/11/01 06:29:03;;;;;;;5.15;1.65;;;11.80;99.90;;;;;;5031767;28;20560;-66
2021/11/01 06:31:33;;;;;;;5.22;1.90;;;11.90;99.90;;;;;;5032913;28;20148;-67
2021/11/01 06:50:04;;;;;;;10.10;3.25;;;11.80;99.90;;;;;;5031924;28;20164;-67
2021/11/01 07:16:46;;;;;;;5.15;3.35;;;11.90;99.90;;;;;;5047329;28;20482;-68
2021/11/01 07:24:58;;;;;;;12.60;2.85;;;13.00;99.90;;;;;;5060760;28;20084;-67
2021/11/01 08:21:49;;;;;;;9.27;2.92;;;12.00;99.90;;;;;;5050087;28;20039;-67
2021/11/01 08:40:06;;;;;;;5.40;2.50;;;12.20;99.90;;;;;;5049676;28;20029;-68
2021/11/01 09:07:16;;;;;;;12.07;2.42;;;12.30;99.90;;;;;;5037882;28;20450;-65
2021/11/01 09:36:49;;;;;;;6.93;1.40;;;12.50;99.90;;;;;;5053923;28;20090;-67
2021/11/01 09:42:00;;;;;;;4.95;1.27;;;12.50;99.90;;;;;;5054016;28;20029;-67
2021/11/01 09:44:27;;;;;;;11.20;1.92;;;12.40;99.90;;;;;;5054144;28;20044;-68
2021/11/01 09:46:59;;;;;;;16.90;1.70;;;12.50;99.90;;;;;;5053650;28;20455;-67
2021/11/01 09:49:25;;;;;;;5.82;1.05;;;12.50;99.90;;;;;;5053851;28;20029;-67
2021/11/01 09:51:54;;;;;;;9.73;1.05;;;12.50;99.90;;;;;;5053354;28;20036;-66
2021/11/01 09:54:26;;;;;;;8.57;1.77;;;12.60;99.90;;;;;;5053810;28;20390;-67
2021/11/01 09:57:06;;;;;;;8.00;1.20;;;12.70;99.90;;;;;;5052167;28;20058;-68
2021/11/01 09:59:35;;;;;;;6.63;1.05;;;12.70;99.90;;;;;;5052071;28;20465;-68
2021/11/01 10:02:01;;;;;;;5.38;1.08;;;12.80;99.90;;;;;;5053887;28;20029;-67
2021/11/01 10:04:32;;;;;;;5.47;1.27;;;12.80;99.90;;;;;;5052524;28;20063;-66
2021/11/01 10:07:36;;;;;;;10.50;1.25;;;12.60;99.90;;;;;;5054031;28;20156;-67
2021/11/01 10:10:09;;;;;;;11.13;2.03;;;12.70;99.90;;;;;;5031413;28;20037;-66
2021/11/01 10:12:36;;;;;;;11.85;1.67;;;12.70;99.90;;;;;;5030969;28;20029;-67
2021/11/01 10:18:06;;;;;;;11.75;1.38;;;12.70;99.90;;;;;;5030593;28;20414;-67
2021/11/01 10:20:34;;;;;;;5.57;1.05;;;12.80;99.90;;;;;;5014110;28;20036;-73
2021/11/01 10:23:00;;;;;;;6.05;1.00;;;12.80;99.90;;;;;;5014148;28;20028;-67
2021/11/01 10:25:27;;;;;;;11.13;2.60;;;12.80;99.90;;;;;;5030948;28;20045;-67
2021/11/01 10:27:57;;;;;;;5.00;1.23;;;12.70;99.90;;;;;;5030335;28;20167;-67
2021/11/01 10:30:29;;;;;;;12.37;1.27;;;12.80;99.90;;;;;;5030948;28;20096;-65
2021/11/01 10:32:56;;;;;;;7.28;1.55;;;12.80;99.90;;;;;;5030311;28;20025;-67
2021/11/01 10:35:30;;;;;;;13.98;2.40;;;12.80;99.90;;;;;;5030759;28;20471;-67
2021/11/01 10:38:21;;;;;;;4.30;1.17;;;12.80;99.90;;;;;;5029725;28;20440;-69
2021/11/01 10:41:07;;;;;;;6.63;1.73;;;12.80;99.90;;;;;;5041548;28;20033;-67
2021/11/01 11:19:57;;;;;;;7.47;1.48;;;12.90;99.90;;;;;;5051693;28;20426;-68
2021/11/01 11:32:54;;;;;;;3.15;1.02;;;13.10;99.90;;;;;;5049436;28;20037;-67
2021/11/01 11:38:22;;;;;;;7.93;1.50;;;13.00;99.90;;;;;;5042938;28;20106;-67
2021/11/01 11:43:59;;;;;;;10.23;1.40;;;13.30;99.90;;;;;;5029385;28;20042;-67
2021/11/01 11:49:18;;;;;;;4.30;0.98;;;13.80;99.90;;;;;;5036255;28;20134;-67
2021/11/01 11:51:55;;;;;;;5.60;1.63;;;14.30;99.90;;;;;;5049562;28;20045;-68
2021/11/01 11:54:36;;;;;;;9.27;1.30;;;14.20;99.90;;;;;;5050348;28;20127;-66
2021/11/01 11:57:04;;;;;;;6.50;1.00;;;14.00;99.90;;;;;;5052181;28;20120;-66
2021/11/01 11:59:38;;;;;;;8.07;1.60;;;13.80;99.90;;;;;;5051976;28;20383;-67
2021/11/01 12:02:09;;;;;;;9.25;1.40;;;13.80;99.90;;;;;;5050520;28;20025;-66
2021/11/01 12:04:42;;;;;;;8.38;1.60;;;13.90;99.90;;;;;;5050392;28;20048;-67
2021/11/01 12:07:13;;;;;;;25.60;2.10;;;13.80;99.90;;;;;;5050579;28;20036;-67
2021/11/01 12:09:53;;;;;;;6.45;1.10;;;13.80;99.90;;;;;;5049982;28;20090;-68
2021/11/01 12:17:30;;;;;;;8.27;2.97;;;13.20;99.90;;;;;;5050316;28;20069;-69
2021/11/01 12:20:01;;;;;;;7.57;1.50;;;13.20;99.90;;;;;;5051049;28;20102;-71
2021/11/01 12:22:34;;;;;;;4.22;1.38;;;13.30;99.90;;;;;;5048014;28;20501;-68
2021/11/01 12:25:05;;;;;;;12.07;2.15;;;13.20;99.90;;;;;;5045498;28;20072;-69
2021/11/01 12:27:35;;;;;;;9.77;2.22;;;13.20;99.90;;;;;;5040490;28;20098;-68
2021/11/01 12:30:06;;;;;;;8.90;2.33;;;13.10;99.90;;;;;;5047265;28;20040;-67
2021/11/01 12:32:37;;;;;;;9.57;1.40;;;13.00;99.90;;;;;;5046477;28;20112;-68
2021/11/01 12:35:27;;;;;;;7.18;1.77;;;13.00;99.90;;;;;;5050847;28;20059;-68
2021/11/01 12:38:11;;;;;;;10.23;1.52;;;13.10;99.90;;;;;;5049896;28;20041;-67
2021/11/01 12:41:08;;;;;;;9.30;1.80;;;13.00;99.90;;;;;;5049738;28;20029;-68
2021/11/01 12:43:45;;;;;;;6.63;1.00;;;13.00;99.90;;;;;;5051209;28;20467;-67
2021/11/01 12:59:51;;;;;;;6.47;1.55;;;13.00;99.90;;;;;;5049077;28;20036;-71
2021/11/01 13:02:19;;;;;;;;;;;13.00;99.90;;;;;;5039280;28;20132;-68
2021/11/01 13:04:46;;;;;;;7.60;1.83;;;13.00;99.90;;;;;;5029148;28;19913;-68
2021/11/01 13:09:59;;;;;;;7.18;1.67;;;13.00;99.90;;;;;;5050008;28;20036;-69
2021/11/01 13:12:43;;;;;;;14.02;3.70;;;13.00;99.90;;;;;;5049765;28;20040;-69
2021/11/01 13:18:11;;;;;;;8.15;1.83;;;12.70;99.90;;;;;;5048140;28;20044;-67
2021/11/01 13:21:05;;;;;;;6.75;1.45;;;12.70;99.90;;;;;;5037812;28;20087;-68
2021/11/01 13:23:34;;;;;;;4.03;1.05;;;12.60;99.90;;;;;;5030076;28;20041;-68
2021/11/01 13:26:20;;;;;;;5.05;1.38;;;12.70;99.90;;;;;;5045224;28;20187;-68
2021/11/01 13:37:22;;;;;;;3.47;1.40;;;13.00;99.90;;;;;;5037091;28;20044;-69
2021/11/01 13:40:09;;;;;;;5.45;1.58;;;13.10;99.90;;;;;;5048381;28;20026;-68
2021/11/01 13:42:39;;;;;;;4.95;1.33;;;13.00;99.90;;;;;;5035926;28;20367;-68
2021/11/01 13:45:16;;;;;;;6.93;1.48;;;12.90;99.90;;;;;;5048802;28;20029;-69
2021/11/01 13:47:50;;;;;;;6.45;1.75;;;13.00;99.90;;;;;;5049673;28;20490;-71
2021/11/01 13:50:19;;;;;;;4.88;1.77;;;13.00;99.90;;;;;;5049676;28;20026;-68
2021/11/01 13:53:01;;;;;;;10.60;1.63;;;12.90;99.90;;;;;;5047606;28;20067;-69
2021/11/01 13:58:33;;;;;;;7.35;1.55;;;12.90;99.90;;;;;;5049550;28;20124;-69
2021/11/01 15:11:27;;;;;;;2.95;1.20;;;12.60;99.90;;;;;;5045005;28;20091;-68
2021/11/01 15:16:43;;;;;;;7.90;1.40;;;12.70;99.90;;;;;;5052798;28;20126;-67
2021/11/01 16:18:37;;;;;;;5.05;2.20;;;11.40;99.90;;;;;;5051172;28;20025;-68
2021/11/01 16:21:04;;;;;;;5.50;1.80;;;11.30;99.90;;;;;;5049569;28;20021;-67
2021/11/01 16:23:36;;;;;;;3.55;1.58;;;11.30;99.90;;;;;;5050189;28;20033;-68
2021/11/01 16:28:47;;;;;;;4.93;1.83;;;11.50;99.90;;;;;;5043886;28;20060;-68
2021/11/01 16:31:26;;;;;;;11.57;2.25;;;11.40;99.90;;;;;;5044584;28;20021;-68
2021/11/01 16:34:17;;;;;;;3.95;1.95;;;11.40;99.90;;;;;;5039982;28;20040;-76
2021/11/01 16:39:20;;;;;;;2.33;1.10;;;11.10;99.90;;;;;;5051276;28;20493;-67
2021/11/01 16:41:47;;;;;;;2.75;1.20;;;11.10;99.90;;;;;;5043353;28;20339;-67
2021/11/01 16:44:18;;;;;;;2.28;0.93;;;10.90;99.90;;;;;;5046069;28;20037;-68
2021/11/01 16:46:45;;;;;;;3.17;0.85;;;10.90;99.90;;;;;;5040136;28;20386;-68
2021/11/01 16:49:12;;;;;;;3.78;1.05;;;10.80;99.90;;;;;;5043653;28;20500;-68
2021/11/01 16:51:42;;;;;;;4.30;1.00;;;10.80;99.90;;;;;;5049190;28;20036;-67
2021/11/01 16:54:11;;;;;;;3.63;0.80;;;10.80;99.90;;;;;;5050059;28;20427;-68
2021/11/01 16:56:54;;;;;;;4.72;0.88;;;10.70;99.90;;;;;;5049834;28;20029;-70
2021/11/01 17:02:13;;;;;;;4.10;1.00;;;10.70;99.90;;;;;;5048376;28;20051;-68
2021/11/01 17:04:41;;;;;;;3.42;1.15;;;10.70;99.90;;;;;;5049151;28;20458;-67
2021/11/01 17:07:27;;;;;;;3.00;1.02;;;10.60;99.90;;;;;;5046795;28;20025;-67
2021/11/01 17:26:21;;;;;;;3.78;1.00;;;10.40;99.90;;;;;;5049075;28;20039;-68
2021/11/01 17:29:09;;;;;;;2.30;0.98;;;10.40;99.90;;;;;;5048077;28;20464;-69
2021/11/01 17:37:40;;;;;;;4.85;1.73;;;10.90;99.90;;;;;;5049526;28;20219;-69
2021/11/01 18:51:49;;;;;;;5.90;2.50;;;10.80;99.90;;;;;;5050980;28;20047;-69
2021/11/01 18:54:25;;;;;;;7.50;2.95;;;10.80;99.90;;;;;;5051474;28;20438;-69
2021/11/01 18:56:56;;;;;;;5.75;2.10;;;10.70;99.90;;;;;;5050890;28;20033;-70
2021/11/01 18:59:25;;;;;;;7.20;2.00;;;10.60;99.90;;;;;;5049428;28;20100;-69
2021/11/01 19:02:03;;;;;;;6.30;2.65;;;10.60;99.90;;;;;;5052287;28;20403;-69
2021/11/01 19:04:35;;;;;;;4.22;2.08;;;10.60;99.90;;;;;;5052290;28;20033;-69
2021/11/01 20:10:19;;;;;;;6.63;3.85;;;11.90;99.90;;;;;;5046445;28;20095;-66
2021/11/01 21:27:31;;;;;;;10.23;6.07;;;10.00;99.90;;;;;;5053098;28;20359;-69
2021/11/01 21:29:57;;;;;;;13.38;5.75;;;9.90;99.90;;;;;;5052612;28;20051;-71
2021/11/01 21:32:23;;;;;;;7.40;4.60;;;10.00;99.90;;;;;;5051416;28;20426;-68
2021/11/01 21:35:07;;;;;;;8.73;4.55;;;10.00;99.90;;;;;;5052745;28;20025;-67
2021/11/01 21:37:33;;;;;;;7.60;5.40;;;10.00;99.90;;;;;;5051199;28;20476;-68
2021/11/01 21:40:00;;;;;;;11.52;5.60;;;10.00;99.90;;;;;;5053215;28;20056;-69
2021/11/01 21:42:26;;;;;;;11.02;5.00;;;10.00;99.90;;;;;;5053210;28;20025;-68
2021/11/01 21:44:52;;;;;;;10.77;5.05;;;9.90;99.90;;;;;;5051282;28;20021;-70
2021/11/01 21:47:19;;;;;;;7.53;5.00;;;10.00;99.90;;;;;;5053438;28;20368;-69
2021/11/01 21:49:46;;;;;;;9.77;5.35;;;10.00;99.90;;;;;;5052958;28;20033;-68
2021/11/01 21:52:13;;;;;;;9.10;5.18;;;10.10;99.90;;;;;;5052826;28;20463;-67
2021/11/01 21:54:48;;;;;;;8.73;5.70;;;10.20;99.90;;;;;;5053720;28;20103;-68
2021/11/01 21:57:23;;;;;;;11.70;5.60;;;10.10;99.90;;;;;;5048405;28;20029;-68
2021/11/01 22:40:40;;;;;;;10.57;4.75;;;10.20;99.90;;;;;;5053438;28;20409;-68
2021/11/01 22:43:15;;;;;;;11.30;4.75;;;10.00;99.90;;;;;;5053193;28;20078;-67
2021/11/01 22:46:09;;;;;;;10.88;5.25;;;10.00;99.90;;;;;;5052497;28;20037;-67
2021/11/01 22:48:55;;;;;;;7.90;5.65;;;9.90;99.90;;;;;;5052266;28;20025;-68
2021/11/01 22:56:53;;;;;;;9.95;6.22;;;9.80;99.90;;;;;;5053620;28;20143;-67
2021/11/01 22:59:19;;;;;;;8.52;5.45;;;9.80;99.90;;;;;;5053014;28;20104;-66
2021/11/01 23:01:47;;;;;;;9.43;6.93;;;9.80;99.90;;;;;;5053196;28;20057;-68
2021/11/01 23:04:33;;;;;;;9.23;6.72;;;9.80;99.90;;;;;;5052659;28;20170;-68
2021/11/01 23:31:37;;;;;;;9.88;7.45;;;9.70;99.90;;;;;;5052530;28;20040;-67
2021/11/01 23:34:06;;;;;;;10.27;7.13;;;9.70;99.90;;;;;;5052516;28;20120;-67
2021/11/01 23:36:32;;;;;;;15.10;8.98;;;9.60;99.90;;;;;;5052139;28;20481;-67
2021/11/01 23:38:59;;;;;;;10.23;6.30;;;9.70;99.90;;;;;;5051055;28;20439;-67
2021/11/01 23:41:24;;;;;;;10.02;6.72;;;9.60;99.90;;;;;;5050425;28;20021;-67
2021/11/01 23:43:50;;;;;;;9.20;7.40;;;9.60;99.90;;;;;;5052292;28;20056;-68
2021/11/01 23:46:17;;;;;;;7.55;6.30;;;9.60;99.90;;;;;;5049808;28;20110;-67
2021/11/01 23:48:43;;;;;;;12.40;6.90;;;9.70;99.90;;;;;;5052252;28;20487;-67
2021/11/01 23:51:10;;;;;;;9.95;6.55;;;9.60;99.90;;;;;;5050472;28;20025;-67
2021/11/01 23:53:47;;;;;;;9.02;6.97;;;9.60;99.90;;;;;;5052323;28;20033;-67
2021/11/01 23:56:14;;;;;;;10.35;6.97;;;9.60;99.90;;;;;;5050214;28;20033;-69
2021/11/01 23:58:43;;;;;;;10.10;7.18;;;9.60;99.90;;;;;;5052540;28;20093;-69
